createdAt,value
2019-03-25T00:01:53.728Z,80.90
2019-03-25T00:04:23.770Z,81.30
2019-03-25T00:06:53.718Z,81.20
2019-03-25T00:09:23.671Z,81.00
2019-03-25T00:11:53.612Z,80.90
2019-03-25T00:14:23.506Z,80.70
2019-03-25T00:16:53.384Z,81.30
2019-03-25T00:19:23.263Z,80.90
2019-03-25T00:21:53.203Z,81.10
2019-03-25T00:24:23.098Z,81.80
2019-03-25T00:26:53.080Z,82.50
2019-03-25T00:29:22.995Z,81.70
2019-03-25T00:31:52.852Z,81.60
2019-03-25T00:34:22.796Z,81.40
2019-03-25T00:36:52.837Z,81.50
2019-03-25T00:39:22.715Z,81.90
2019-03-25T00:41:52.660Z,81.50
2019-03-25T00:44:22.485Z,81.50
2019-03-25T00:46:52.382Z,82.10
2019-03-25T00:49:22.349Z,83.00
2019-03-25T00:51:52.205Z,82.60
2019-03-25T00:54:22.177Z,83.10
2019-03-25T00:56:52.100Z,82.40
2019-03-25T00:59:22.064Z,82.30
2019-03-25T01:01:52.016Z,82.10
2019-03-25T01:04:21.976Z,81.80
2019-03-25T01:06:52.001Z,81.90
2019-03-25T01:09:22.132Z,81.90
2019-03-25T01:11:52.029Z,81.80
2019-03-25T01:14:21.945Z,82.20
2019-03-25T01:16:51.823Z,82.30
2019-03-25T01:19:21.697Z,83.00
2019-03-25T01:21:51.612Z,82.90
2019-03-25T01:24:21.582Z,83.40
2019-03-25T01:26:51.502Z,83.80
2019-03-25T01:29:21.451Z,84.60
2019-03-25T01:31:51.352Z,84.30
2019-03-25T01:34:21.252Z,83.90
2019-03-25T01:36:51.189Z,84.20
2019-03-25T01:39:21.052Z,83.70
2019-03-25T01:41:50.988Z,85.90
2019-03-25T01:44:20.837Z,84.00
2019-03-25T01:46:50.731Z,84.70
2019-03-25T01:49:20.673Z,83.70
2019-03-25T01:51:50.639Z,84.20
2019-03-25T01:54:20.568Z,84.10
2019-03-25T01:56:50.461Z,84.60
2019-03-25T01:59:20.359Z,84.50
2019-03-25T02:01:50.317Z,84.40
2019-03-25T02:04:20.217Z,84.40
2019-03-25T02:06:50.352Z,85.00
2019-03-25T02:09:20.296Z,85.30
2019-03-25T02:11:50.230Z,85.20
2019-03-25T02:14:20.151Z,85.20
2019-03-25T02:16:50.007Z,85.60
2019-03-25T02:19:20.008Z,85.50
2019-03-25T02:21:49.960Z,85.40
2019-03-25T02:24:19.957Z,86.40
2019-03-25T02:26:49.894Z,85.40
2019-03-25T02:29:19.783Z,85.20
2019-03-25T02:31:49.718Z,86.20
2019-03-25T02:34:19.806Z,87.00
2019-03-25T02:36:49.671Z,86.30
2019-03-25T02:39:19.547Z,86.50
2019-03-25T02:41:49.479Z,86.30
2019-03-25T02:44:19.407Z,86.40
2019-03-25T02:46:49.401Z,86.40
2019-03-25T02:49:19.342Z,85.90
2019-03-25T02:51:49.269Z,86.40
2019-03-25T02:54:19.225Z,86.50
2019-03-25T02:56:49.197Z,87.10
2019-03-25T02:59:19.031Z,88.00
2019-03-25T03:01:48.981Z,87.30
2019-03-25T03:04:21.116Z,87.10
2019-03-25T03:06:51.021Z,87.40
2019-03-25T03:09:20.920Z,86.90
2019-03-25T03:11:50.924Z,86.90
2019-03-25T03:14:20.785Z,86.70
2019-03-25T03:16:50.761Z,86.70
2019-03-25T03:19:20.651Z,86.30
2019-03-25T03:21:50.561Z,86.20
2019-03-25T03:24:20.503Z,86.70
2019-03-25T03:26:50.425Z,87.00
2019-03-25T03:29:20.375Z,86.40
2019-03-25T03:31:50.291Z,86.80
2019-03-25T03:34:20.207Z,86.60
2019-03-25T03:36:50.115Z,86.40
2019-03-25T03:39:20.073Z,86.10
2019-03-25T03:41:49.993Z,86.70
2019-03-25T03:44:19.986Z,86.60
2019-03-25T03:46:49.964Z,88.00
2019-03-25T03:49:19.877Z,87.10
2019-03-25T03:51:50.267Z,87.20
2019-03-25T03:54:20.253Z,86.40
2019-03-25T03:56:52.522Z,86.40
2019-03-25T03:59:22.634Z,86.70
2019-03-25T04:01:52.520Z,86.20
2019-03-25T04:04:22.467Z,86.90
2019-03-25T04:06:52.414Z,86.30
2019-03-25T04:09:22.327Z,86.70
2019-03-25T04:11:52.282Z,88.60
2019-03-25T04:14:24.744Z,87.50
2019-03-25T04:16:54.746Z,88.20
2019-03-25T04:19:24.709Z,87.30
2019-03-25T04:21:54.660Z,87.10
2019-03-25T04:24:24.623Z,87.00
2019-03-25T04:26:54.683Z,87.40
2019-03-25T04:29:24.615Z,87.80
2019-03-25T04:31:54.620Z,87.20
2019-03-25T04:34:24.536Z,86.70
2019-03-25T04:36:54.495Z,86.70
2019-03-25T04:39:24.418Z,86.60
2019-03-25T04:41:54.352Z,86.40
2019-03-25T04:44:24.222Z,86.30
2019-03-25T04:46:54.170Z,85.70
2019-03-25T04:49:24.132Z,85.80
2019-03-25T04:51:54.047Z,85.60
2019-03-25T04:54:23.881Z,86.80
2019-03-25T04:56:53.907Z,86.50
2019-03-25T04:59:23.846Z,86.90
2019-03-25T05:01:53.787Z,86.20
2019-03-25T05:04:25.088Z,85.10
2019-03-25T05:06:54.933Z,85.60
2019-03-25T05:09:24.845Z,85.90
2019-03-25T05:11:54.778Z,85.80
2019-03-25T05:14:24.657Z,85.30
2019-03-25T05:16:54.568Z,85.10
2019-03-25T05:19:24.477Z,85.30
2019-03-25T05:21:55.365Z,85.30
2019-03-25T05:24:25.365Z,85.40
2019-03-25T05:26:55.267Z,85.80
2019-03-25T05:29:25.224Z,86.20
2019-03-25T05:31:55.120Z,86.50
2019-03-25T05:34:25.005Z,86.60
2019-03-25T05:36:54.875Z,86.70
2019-03-25T05:39:24.782Z,86.30
2019-03-25T05:41:54.658Z,86.30
2019-03-25T05:44:24.572Z,85.60
2019-03-25T05:46:54.549Z,85.40
2019-03-25T05:49:24.503Z,86.30
2019-03-25T05:51:54.452Z,86.00
2019-03-25T05:54:24.406Z,86.40
2019-03-25T05:57:02.462Z,85.90
2019-03-25T05:59:25.932Z,85.90
2019-03-25T06:01:55.826Z,85.80
2019-03-25T06:04:25.765Z,85.00
2019-03-25T06:06:55.654Z,84.90
2019-03-25T06:09:25.578Z,84.60
2019-03-25T06:11:55.439Z,84.30
2019-03-25T06:14:25.390Z,85.30
2019-03-25T06:16:55.284Z,84.70
2019-03-25T06:19:25.293Z,84.60
2019-03-25T06:21:55.236Z,84.10
2019-03-25T06:24:25.148Z,83.10
2019-03-25T06:26:55.100Z,83.40
2019-03-25T06:29:25.028Z,82.50
2019-03-25T06:31:54.986Z,82.60
2019-03-25T06:34:24.898Z,83.10
2019-03-25T06:36:55.000Z,82.70
2019-03-25T06:39:24.884Z,83.10
2019-03-25T06:41:54.884Z,83.50
2019-03-25T06:44:24.794Z,83.50
2019-03-25T06:46:54.758Z,84.60
2019-03-25T06:49:24.653Z,85.60
2019-03-25T06:51:54.555Z,87.60
2019-03-25T06:54:24.467Z,90.00
2019-03-25T06:56:54.393Z,90.90
2019-03-25T06:59:24.325Z,90.90
2019-03-25T07:01:54.203Z,90.40
2019-03-25T07:04:24.096Z,90.50
2019-03-25T07:06:54.030Z,90.40
2019-03-25T07:09:23.965Z,90.10
2019-03-25T07:11:53.966Z,89.60
2019-03-25T07:14:23.977Z,88.70
2019-03-25T07:16:53.986Z,88.50
2019-03-25T07:19:23.907Z,87.80
2019-03-25T07:21:53.778Z,86.00
2019-03-25T07:24:23.666Z,86.70
2019-03-25T07:26:55.547Z,86.00
2019-03-25T07:29:25.255Z,85.50
2019-03-25T07:31:56.704Z,87.10
2019-03-25T07:34:26.603Z,86.10
2019-03-25T07:36:56.513Z,84.90
2019-03-25T07:39:26.456Z,85.90
2019-03-25T07:41:56.321Z,86.60
2019-03-25T07:44:26.217Z,83.80
2019-03-25T07:46:56.244Z,84.70
2019-03-25T07:49:26.195Z,83.10
2019-03-25T07:51:56.181Z,85.20
2019-03-25T07:54:26.116Z,84.10
2019-03-25T07:56:56.052Z,83.80
2019-03-25T07:59:26.025Z,84.10
2019-03-25T08:01:55.998Z,81.60
2019-03-25T08:04:25.973Z,81.80
2019-03-25T08:06:55.966Z,83.90
2019-03-25T08:09:25.987Z,82.70
2019-03-25T08:11:55.936Z,82.90
2019-03-25T08:14:25.869Z,83.60
2019-03-25T08:16:55.851Z,84.30
2019-03-25T08:19:26.012Z,87.90
2019-03-25T08:21:56.041Z,88.40
2019-03-25T08:24:26.478Z,87.80
2019-03-25T08:26:56.365Z,88.10
2019-03-25T08:29:26.413Z,88.50
2019-03-25T08:31:58.851Z,88.10
2019-03-25T08:34:27.972Z,90.10
2019-03-25T08:36:57.911Z,90.20
2019-03-25T08:39:27.883Z,89.20
2019-03-25T08:41:57.781Z,89.30
2019-03-25T08:44:27.675Z,90.30
2019-03-25T08:46:57.580Z,91.30
2019-03-25T08:49:27.516Z,90.40
2019-03-25T08:51:57.551Z,91.40
2019-03-25T08:54:27.527Z,91.90
2019-03-25T08:56:57.485Z,92.50
2019-03-25T08:59:27.337Z,92.80
2019-03-25T09:01:57.252Z,92.60
2019-03-25T09:04:27.201Z,92.20
2019-03-25T09:06:57.140Z,91.80
2019-03-25T09:09:27.083Z,91.90
2019-03-25T09:11:57.066Z,91.10
2019-03-25T09:14:26.932Z,90.50
2019-03-25T09:16:56.874Z,90.40
2019-03-25T09:19:26.824Z,90.60
2019-03-25T09:21:56.839Z,89.60
2019-03-25T09:24:26.721Z,90.50
2019-03-25T09:26:56.645Z,90.20
2019-03-25T09:29:26.550Z,87.60
2019-03-25T09:31:56.440Z,88.00
2019-03-25T09:34:26.401Z,87.50
2019-03-25T09:36:56.272Z,86.00
2019-03-25T09:39:26.227Z,85.00
2019-03-25T09:41:56.084Z,84.50
2019-03-25T09:44:26.233Z,83.30
2019-03-25T09:46:56.132Z,80.10
2019-03-25T09:49:26.129Z,81.20
2019-03-25T09:51:56.145Z,82.90
2019-03-25T09:54:25.985Z,84.40
2019-03-25T09:56:55.875Z,85.10
2019-03-25T09:59:25.809Z,84.90
2019-03-25T10:01:55.699Z,83.50
2019-03-25T10:04:25.678Z,84.30
2019-03-25T10:06:55.780Z,83.10
2019-03-25T10:09:25.664Z,74.70
2019-03-25T10:11:55.605Z,73.60
2019-03-25T10:14:25.436Z,71.20
2019-03-25T10:16:55.420Z,73.00
2019-03-25T10:19:25.437Z,79.40
2019-03-25T10:21:55.478Z,77.80
2019-03-25T10:24:27.893Z,79.70
2019-03-25T10:26:57.061Z,79.00
2019-03-25T10:29:27.129Z,79.70
2019-03-25T10:31:57.089Z,81.00
2019-03-25T10:34:26.940Z,80.80
2019-03-25T10:36:56.838Z,81.20
2019-03-25T10:39:26.797Z,74.80
2019-03-25T10:41:56.755Z,74.20
2019-03-25T10:44:26.778Z,73.00
2019-03-25T10:46:56.706Z,71.50
2019-03-25T10:49:26.627Z,69.90
2019-03-25T10:51:56.532Z,70.60
2019-03-25T10:54:26.428Z,69.60
2019-03-25T10:56:56.362Z,71.70
2019-03-25T10:59:26.265Z,72.00
2019-03-25T11:01:56.314Z,72.90
2019-03-25T11:04:26.351Z,74.90
2019-03-25T11:06:56.245Z,73.90
2019-03-25T11:09:26.282Z,72.90
2019-03-25T11:11:56.152Z,72.10
2019-03-25T11:14:26.033Z,73.00
2019-03-25T11:16:55.935Z,75.30
2019-03-25T11:19:25.867Z,80.40
2019-03-25T11:21:55.787Z,81.10
2019-03-25T11:24:25.796Z,82.80
2019-03-25T11:26:55.661Z,85.70
2019-03-25T11:29:25.649Z,89.00
2019-03-25T11:31:55.541Z,88.20
2019-03-25T11:34:25.368Z,88.00
2019-03-25T11:37:14.176Z,88.90
2019-03-25T11:39:44.165Z,87.20
2019-03-25T11:42:14.161Z,87.90
2019-03-25T11:44:44.088Z,89.40
2019-03-25T11:47:14.010Z,87.10
2019-03-25T11:49:44.618Z,86.40
2019-03-25T11:52:14.632Z,80.10
2019-03-25T11:54:44.567Z,81.10
2019-03-25T11:57:14.522Z,82.00
2019-03-25T11:59:44.391Z,84.00
2019-03-25T12:02:17.873Z,83.30
2019-03-25T12:04:45.963Z,85.00
2019-03-25T12:07:15.901Z,86.30
2019-03-25T12:09:45.991Z,83.20
2019-03-25T12:12:15.959Z,84.60
2019-03-25T12:14:46.040Z,84.20
2019-03-25T12:17:16.001Z,83.20
2019-03-25T12:19:46.091Z,83.50
2019-03-25T12:22:16.031Z,82.10
2019-03-25T12:24:45.932Z,83.20
2019-03-25T12:27:15.843Z,81.10
2019-03-25T12:29:45.862Z,80.60
2019-03-25T12:32:15.769Z,80.90
2019-03-25T12:34:45.699Z,80.20
2019-03-25T12:37:15.568Z,80.20
2019-03-25T12:39:46.287Z,80.60
2019-03-25T12:42:16.526Z,81.40
2019-03-25T12:44:46.910Z,80.20
2019-03-25T12:47:17.345Z,76.90
2019-03-25T12:49:47.896Z,80.40
2019-03-25T12:52:18.288Z,78.20
2019-03-25T12:54:48.579Z,75.50
2019-03-25T12:57:18.826Z,76.70
2019-03-25T12:59:49.102Z,78.00
2019-03-25T13:02:19.383Z,77.40
2019-03-25T13:04:49.733Z,75.90
2019-03-25T13:07:20.150Z,76.90
2019-03-25T13:09:52.084Z,77.30
2019-03-25T13:12:22.406Z,74.70
2019-03-25T13:14:52.695Z,76.40
2019-03-25T13:17:23.012Z,73.40
2019-03-25T13:19:55.507Z,74.40
2019-03-25T13:22:25.857Z,75.30
2019-03-25T13:24:56.549Z,73.80
2019-03-25T13:27:26.997Z,74.00
2019-03-25T13:29:57.373Z,71.20
2019-03-25T13:32:27.582Z,70.60
2019-03-25T13:34:57.936Z,72.60
2019-03-25T13:37:30.628Z,73.70
2019-03-25T13:40:00.910Z,70.80
2019-03-25T13:42:31.429Z,73.30
2019-03-25T13:45:01.626Z,75.00
2019-03-25T13:47:31.967Z,75.20
2019-03-25T13:50:02.466Z,76.00
2019-03-25T13:52:33.061Z,75.20
2019-03-25T13:55:03.609Z,74.90
2019-03-25T13:57:34.058Z,73.60
2019-03-25T14:00:05.043Z,74.20
2019-03-25T14:02:35.278Z,74.40
2019-03-25T14:05:05.860Z,74.20
2019-03-25T14:07:36.035Z,73.50
2019-03-25T14:10:06.679Z,74.90
2019-03-25T14:12:36.854Z,73.50
2019-03-25T14:15:07.678Z,72.10
2019-03-25T14:17:37.865Z,70.40
2019-03-25T14:20:08.541Z,72.70
2019-03-25T14:22:38.729Z,73.20
2019-03-25T14:25:09.344Z,72.70
2019-03-25T14:27:39.414Z,72.40
2019-03-25T14:30:14.815Z,73.00
2019-03-25T14:32:42.837Z,74.10
2019-03-25T14:35:13.196Z,74.70
2019-03-25T14:37:43.438Z,75.50
2019-03-25T14:40:13.905Z,72.10
2019-03-25T14:42:44.105Z,72.20
2019-03-25T14:45:14.428Z,72.30
2019-03-25T14:47:44.596Z,72.40
2019-03-25T14:50:14.957Z,70.90
2019-03-25T14:52:45.203Z,72.20
2019-03-25T14:55:15.714Z,72.80
2019-03-25T14:57:45.806Z,72.80
2019-03-25T15:00:24.674Z,73.50
2019-03-25T15:02:48.338Z,70.70
2019-03-25T15:05:18.835Z,71.00
2019-03-25T15:07:48.989Z,70.70
2019-03-25T15:10:20.042Z,71.30
2019-03-25T15:12:50.160Z,68.80
2019-03-25T15:15:20.041Z,70.60
2019-03-25T15:17:50.059Z,69.50
2019-03-25T15:20:19.983Z,70.70
2019-03-25T15:22:49.929Z,70.90
2019-03-25T15:25:20.448Z,69.30
2019-03-25T15:27:51.846Z,68.50
2019-03-25T15:30:22.045Z,69.30
2019-03-25T15:32:51.990Z,70.70
2019-03-25T15:35:21.920Z,71.10
2019-03-25T15:37:51.913Z,69.90
2019-03-25T15:40:22.070Z,71.50
2019-03-25T15:42:52.135Z,71.30
2019-03-25T15:45:22.097Z,71.80
2019-03-25T15:47:52.014Z,71.80
2019-03-25T15:50:21.975Z,73.50
2019-03-25T15:52:51.955Z,72.00
2019-03-25T15:55:21.947Z,71.40
2019-03-25T15:57:51.925Z,72.60
2019-03-25T16:00:22.740Z,73.10
2019-03-25T16:02:52.714Z,72.30
2019-03-25T16:05:22.679Z,73.10
2019-03-25T16:07:52.646Z,74.10
2019-03-25T16:10:23.141Z,73.90
2019-03-25T16:12:53.146Z,74.00
2019-03-25T16:15:40.385Z,73.90
2019-03-25T16:18:10.786Z,74.10
2019-03-25T16:20:40.723Z,73.70
2019-03-25T16:23:10.753Z,74.60
2019-03-25T16:25:40.714Z,74.10
2019-03-25T16:28:10.728Z,73.70
2019-03-25T16:30:40.629Z,74.50
2019-03-25T16:33:10.579Z,73.90
2019-03-25T16:35:40.569Z,73.60
2019-03-25T16:38:10.478Z,74.60
2019-03-25T16:40:40.440Z,74.50
2019-03-25T16:43:10.464Z,74.90
2019-03-25T16:45:40.396Z,75.00
2019-03-25T16:48:10.296Z,76.50
2019-03-25T16:50:40.312Z,75.70
2019-03-25T16:53:10.259Z,75.90
2019-03-25T16:55:40.245Z,75.50
2019-03-25T16:58:10.190Z,75.10
2019-03-25T17:00:40.146Z,75.30
2019-03-25T17:03:10.451Z,75.50
2019-03-25T17:05:42.371Z,75.90
2019-03-25T17:08:12.101Z,75.70
2019-03-25T17:10:42.086Z,76.20
2019-03-25T17:13:15.068Z,76.50
2019-03-25T17:15:45.083Z,77.40
2019-03-25T17:18:15.053Z,78.40
2019-03-25T17:20:47.150Z,78.60
2019-03-25T17:23:17.195Z,79.80
2019-03-25T17:25:53.027Z,79.60
2019-03-25T17:28:18.781Z,81.00
2019-03-25T17:30:48.762Z,82.00
2019-03-25T17:33:18.934Z,83.80
2019-03-25T17:35:48.855Z,86.30
2019-03-25T17:38:18.888Z,87.60
2019-03-25T17:40:55.863Z,88.20
2019-03-25T17:43:25.843Z,87.50
2019-03-25T17:45:55.848Z,88.00
2019-03-25T17:48:25.853Z,87.80
2019-03-25T17:50:55.799Z,88.00
2019-03-25T17:53:25.840Z,88.40
2019-03-25T17:55:55.822Z,88.20
2019-03-25T17:58:25.782Z,88.30
2019-03-25T18:01:32.243Z,89.60
2019-03-25T18:03:59.174Z,90.30
2019-03-25T18:06:29.182Z,90.90
2019-03-25T18:08:59.252Z,91.20
2019-03-25T18:11:29.274Z,91.40
2019-03-25T18:13:59.257Z,91.70
2019-03-25T18:16:29.200Z,91.70
2019-03-25T18:18:59.151Z,91.60
2019-03-25T18:21:29.101Z,91.80
2019-03-25T18:23:59.127Z,91.70
2019-03-25T18:26:29.115Z,91.90
2019-03-25T18:28:59.231Z,91.80
2019-03-25T18:31:29.293Z,91.80
2019-03-25T18:33:59.291Z,91.80
2019-03-25T18:36:29.337Z,91.50
2019-03-25T18:39:00.873Z,91.40
2019-03-25T18:41:30.795Z,91.40
2019-03-25T18:44:00.737Z,91.40
2019-03-25T18:46:33.284Z,91.60
2019-03-25T18:49:02.439Z,91.50
2019-03-25T18:51:32.491Z,91.50
2019-03-25T18:54:02.449Z,91.70
2019-03-25T18:56:32.451Z,91.60
2019-03-25T18:59:02.559Z,91.60
2019-03-25T19:01:32.888Z,91.60
2019-03-25T19:04:02.823Z,91.60
2019-03-25T19:06:32.967Z,91.50
2019-03-25T19:09:03.027Z,91.20
2019-03-25T19:11:33.041Z,91.50
2019-03-25T19:14:02.944Z,91.60
2019-03-25T19:16:32.823Z,91.70
2019-03-25T19:19:02.837Z,91.60
2019-03-25T19:21:32.764Z,91.70
2019-03-25T19:24:02.720Z,91.70
2019-03-25T19:26:32.760Z,91.90
2019-03-25T19:29:02.777Z,92.00
2019-03-25T19:31:32.987Z,92.00
2019-03-25T19:34:02.968Z,92.50
2019-03-25T19:36:33.056Z,92.70
2019-03-25T19:39:04.160Z,92.90
2019-03-25T19:41:34.293Z,93.00
2019-03-25T19:44:04.503Z,93.40
2019-03-25T19:46:34.496Z,93.30
2019-03-25T19:49:04.459Z,93.30
2019-03-25T19:51:34.492Z,93.20
2019-03-25T19:54:04.548Z,93.30
2019-03-25T19:56:34.496Z,93.30
2019-03-25T19:59:04.785Z,93.40
2019-03-25T20:01:34.765Z,93.40
2019-03-25T20:04:04.811Z,93.20
2019-03-25T20:06:34.881Z,93.40
2019-03-25T20:09:06.784Z,93.30
2019-03-25T20:11:36.888Z,93.50
2019-03-25T20:14:06.881Z,93.70
2019-03-25T20:16:36.987Z,93.90
2019-03-25T20:19:07.078Z,93.90
2019-03-25T20:21:37.381Z,93.90
2019-03-25T20:24:07.440Z,93.90
2019-03-25T20:26:37.473Z,94.00
2019-03-25T20:29:07.649Z,94.10
2019-03-25T20:31:37.771Z,94.10
2019-03-25T20:34:11.134Z,94.30
2019-03-25T20:36:39.418Z,94.10
2019-03-25T20:39:09.967Z,94.50
2019-03-25T20:41:39.980Z,94.50
2019-03-25T20:44:09.986Z,94.60
2019-03-25T20:46:39.931Z,94.50
2019-03-25T20:49:09.993Z,94.60
2019-03-25T20:51:40.086Z,94.60
2019-03-25T20:54:10.061Z,95.00
2019-03-25T20:56:40.074Z,95.20
2019-03-25T20:59:10.084Z,95.20
2019-03-25T21:01:40.114Z,95.30
2019-03-25T21:04:10.066Z,95.60
2019-03-25T21:06:40.061Z,95.90
2019-03-25T21:09:10.023Z,96.10
2019-03-25T21:11:39.964Z,96.20
2019-03-25T21:14:10.050Z,96.20
2019-03-25T21:16:40.038Z,96.30
2019-03-25T21:19:10.015Z,96.40
2019-03-25T21:21:40.004Z,97.00
2019-03-25T21:24:10.044Z,96.90
2019-03-25T21:26:40.127Z,96.90
2019-03-25T21:29:10.146Z,97.30
2019-03-25T21:31:40.236Z,97.80
2019-03-25T21:34:10.865Z,98.20
2019-03-25T21:36:40.962Z,98.60
2019-03-25T21:39:11.456Z,98.50
2019-03-25T21:41:41.436Z,98.60
2019-03-25T21:44:11.361Z,98.70
2019-03-25T21:46:41.359Z,98.70
2019-03-25T21:49:11.301Z,98.60
2019-03-25T21:51:41.285Z,98.70
2019-03-25T21:54:11.256Z,98.70
2019-03-25T21:56:41.226Z,98.80
2019-03-25T21:59:11.059Z,99.00
2019-03-25T22:01:41.024Z,99.10
2019-03-25T22:04:10.878Z,99.00
2019-03-25T22:06:40.923Z,98.80
2019-03-25T22:09:10.825Z,99.20
2019-03-25T22:11:40.695Z,99.50
2019-03-25T22:14:10.777Z,99.60
2019-03-25T22:16:40.701Z,99.80
2019-03-25T22:19:10.612Z,99.90
2019-03-25T22:21:40.527Z,99.90
2019-03-25T22:24:10.485Z,99.90
2019-03-25T22:26:40.475Z,99.90
2019-03-25T22:29:10.453Z,99.90
2019-03-25T22:31:41.572Z,99.90
2019-03-25T22:34:11.552Z,99.90
2019-03-25T22:36:41.488Z,99.90
2019-03-25T22:39:11.477Z,99.90
2019-03-25T22:41:41.360Z,99.90
2019-03-25T22:44:35.017Z,99.90
2019-03-25T22:47:05.050Z,99.90
2019-03-25T22:49:34.982Z,99.90
2019-03-25T22:52:05.037Z,99.90
2019-03-25T22:54:35.002Z,99.90
2019-03-25T22:57:04.978Z,99.90
2019-03-25T22:59:34.905Z,99.90
2019-03-25T23:02:05.629Z,99.90
2019-03-25T23:04:35.534Z,99.90
2019-03-25T23:07:05.607Z,99.90
2019-03-25T23:09:35.509Z,99.90
2019-03-25T23:12:07.872Z,99.90
2019-03-25T23:14:37.781Z,99.90
2019-03-25T23:17:07.783Z,99.90
2019-03-25T23:19:38.730Z,99.90
2019-03-25T23:22:08.913Z,99.90
2019-03-25T23:24:38.827Z,99.90
2019-03-25T23:27:08.667Z,99.90
2019-03-25T23:29:38.521Z,99.90
2019-03-25T23:32:08.446Z,99.90
2019-03-25T23:34:38.449Z,99.90
2019-03-25T23:37:08.415Z,99.90
2019-03-25T23:39:38.354Z,99.90
2019-03-25T23:42:08.229Z,99.90
2019-03-25T23:44:38.334Z,99.90
2019-03-25T23:47:08.361Z,99.90
2019-03-25T23:49:38.221Z,99.90
2019-03-25T23:52:08.118Z,99.90
2019-03-25T23:54:37.950Z,99.90
2019-03-25T23:57:07.860Z,99.90
2019-03-25T23:59:37.859Z,99.90
